createdAt,value
2019-04-20T00:01:28.111Z,7.77
2019-04-20T00:03:52.066Z,7.82
2019-04-20T00:06:22.098Z,7.86
2019-04-20T00:08:55.730Z,7.85
2019-04-20T00:11:29.511Z,7.92
2019-04-20T00:14:00.138Z,8.03
2019-04-20T00:16:23.072Z,8.16
2019-04-20T00:18:56.626Z,8.26
2019-04-20T00:21:47.330Z,8.24
2019-04-20T00:24:16.988Z,8.21
2019-04-20T00:27:11.730Z,8.44
2019-04-20T00:29:30.977Z,8.59
2019-04-20T00:31:56.558Z,8.34
2019-04-20T00:34:24.107Z,8.31
2019-04-20T00:36:47.334Z,8.19
2019-04-20T00:39:17.173Z,8.07
2019-04-20T00:41:51.431Z,8.28
2019-04-20T00:44:24.245Z,8.04
2019-04-20T00:47:01.011Z,7.72
2019-04-20T00:49:35.072Z,7.82
2019-04-20T00:52:18.817Z,7.65
2019-04-20T00:54:22.250Z,7.46
2019-04-20T00:56:53.266Z,7.52
2019-04-20T00:59:35.383Z,7.65
2019-04-20T01:02:09.082Z,7.59
2019-04-20T01:04:42.054Z,7.56
2019-04-20T01:07:11.665Z,7.57
2019-04-20T01:09:47.836Z,7.61
2019-04-20T01:12:22.564Z,7.60
2019-04-20T01:14:55.179Z,7.78
2019-04-20T01:17:18.280Z,7.71
2019-04-20T01:19:48.817Z,7.98
2019-04-20T01:22:21.894Z,8.03
2019-04-20T01:24:48.714Z,7.97
2019-04-20T01:27:33.916Z,8.03
2019-04-20T01:29:57.873Z,7.94
2019-04-20T01:32:30.119Z,8.06
2019-04-20T01:35:03.809Z,7.99
2019-04-20T01:37:35.432Z,7.84
2019-04-20T01:39:55.109Z,7.74
2019-04-20T01:42:23.405Z,7.66
2019-04-20T01:44:54.948Z,7.67
2019-04-20T01:47:30.602Z,7.67
2019-04-20T01:49:59.850Z,7.65
2019-04-20T01:52:28.609Z,7.70
2019-04-20T01:55:30.521Z,7.75
2019-04-20T01:58:00.416Z,7.82
2019-04-20T02:00:23.260Z,7.86
2019-04-20T02:02:57.067Z,7.80
2019-04-20T02:05:28.964Z,7.80
2019-04-20T02:07:54.183Z,7.68
2019-04-20T02:10:31.959Z,7.56
2019-04-20T02:12:59.370Z,7.49
2019-04-20T02:15:32.990Z,7.25
2019-04-20T02:18:07.906Z,7.28
2019-04-20T02:20:43.924Z,7.38
2019-04-20T02:23:11.312Z,7.42
2019-04-20T02:25:26.976Z,7.17
2019-04-20T02:28:14.670Z,7.01
2019-04-20T02:36:47.870Z,6.69
2019-04-20T02:41:17.784Z,6.57
2019-04-20T02:44:11.710Z,6.40
2019-04-20T02:46:14.798Z,6.42
2019-04-20T02:49:01.395Z,6.30
2019-04-20T02:51:28.812Z,6.26
2019-04-20T02:54:05.790Z,6.12
2019-04-20T02:59:12.622Z,5.95
2019-04-20T03:01:29.411Z,5.90
2019-04-20T03:03:43.234Z,5.76
2019-04-20T03:06:19.508Z,5.58
2019-04-20T03:08:56.415Z,5.52
2019-04-20T03:11:29.489Z,5.58
2019-04-20T03:13:58.117Z,5.63
2019-04-20T03:16:24.280Z,5.57
2019-04-20T03:18:55.710Z,5.63
2019-04-20T03:21:34.605Z,5.70
2019-04-20T03:24:06.800Z,5.64
2019-04-20T03:26:33.012Z,5.60
2019-04-20T03:29:13.074Z,5.56
2019-04-20T03:36:59.378Z,5.43
2019-04-20T03:39:22.180Z,5.42
2019-04-20T03:41:42.005Z,5.44
2019-04-20T03:44:12.679Z,5.47
2019-04-20T03:46:45.591Z,5.49
2019-04-20T03:49:28.987Z,5.50
2019-04-20T03:52:02.608Z,5.56
2019-04-20T03:54:30.864Z,5.61
2019-04-20T03:57:19.659Z,5.59
2019-04-20T03:59:41.274Z,5.61
2019-04-20T04:05:06.162Z,5.70
2019-04-20T04:07:29.591Z,5.78
2019-04-20T04:10:04.701Z,5.86
2019-04-20T04:12:56.821Z,5.93
2019-04-20T04:15:25.626Z,6.01
2019-04-20T04:17:58.804Z,6.22
2019-04-20T04:20:33.259Z,6.46
2019-04-20T04:23:10.316Z,6.73
2019-04-20T04:25:39.735Z,6.75
2019-04-20T04:28:12.492Z,7.03
2019-04-20T04:30:43.063Z,7.12
2019-04-20T04:33:41.088Z,7.32
2019-04-20T04:35:44.320Z,7.38
2019-04-20T04:38:19.454Z,7.47
2019-04-20T04:41:00.738Z,7.35
2019-04-20T04:43:21.157Z,7.34
2019-04-20T04:45:36.550Z,7.31
2019-04-20T04:48:06.786Z,7.40
2019-04-20T04:50:44.637Z,7.47
2019-04-20T04:53:13.424Z,7.61
2019-04-20T04:55:45.766Z,7.75
2019-04-20T04:58:06.858Z,7.67
2019-04-20T05:00:36.438Z,7.62
2019-04-20T05:03:24.282Z,7.85
2019-04-20T05:06:03.611Z,7.99
2019-04-20T05:08:18.796Z,7.99
2019-04-20T05:10:41.597Z,7.98
2019-04-20T05:13:11.306Z,7.92
2019-04-20T05:15:53.920Z,7.95
2019-04-20T05:18:36.074Z,7.94
2019-04-20T05:21:06.125Z,8.13
2019-04-20T05:23:30.647Z,8.22
2019-04-20T05:26:10.067Z,8.39
2019-04-20T05:28:33.677Z,8.33
2019-04-20T05:30:59.314Z,8.43
2019-04-20T05:33:34.372Z,8.63
2019-04-20T05:36:14.727Z,8.88
2019-04-20T05:38:46.977Z,9.02
2019-04-20T05:41:11.729Z,9.36
2019-04-20T05:43:41.212Z,9.84
2019-04-20T05:46:22.054Z,9.87
2019-04-20T05:48:53.246Z,9.84
2019-04-20T05:51:25.409Z,9.81
2019-04-20T05:53:53.273Z,9.67
2019-04-20T05:56:29.216Z,9.63
2019-04-20T05:58:50.702Z,9.73
2019-04-20T06:01:25.897Z,10.16
2019-04-20T06:03:53.013Z,10.64
2019-04-20T06:06:27.353Z,11.19
2019-04-20T06:09:02.389Z,12.13
2019-04-20T06:11:28.284Z,12.73
2019-04-20T06:13:50.583Z,12.91
2019-04-20T06:16:42.635Z,13.16
2019-04-20T06:19:14.273Z,12.67
2019-04-20T06:21:51.177Z,12.59
2019-04-20T06:24:26.504Z,12.35
2019-04-20T06:29:25.254Z,11.85
2019-04-20T06:31:57.846Z,11.88
2019-04-20T06:34:33.442Z,11.75
2019-04-20T06:37:09.510Z,12.10
2019-04-20T06:42:10.865Z,12.50
2019-04-20T06:44:32.202Z,12.58
2019-04-20T06:47:09.177Z,13.16
2019-04-20T06:49:35.316Z,13.69
2019-04-20T06:52:20.350Z,13.52
2019-04-20T06:54:57.728Z,13.79
2019-04-20T06:57:34.625Z,14.24
2019-04-20T07:00:05.814Z,14.27
2019-04-20T07:02:35.748Z,14.38
2019-04-20T07:05:06.986Z,14.30
2019-04-20T07:07:29.797Z,14.61
2019-04-20T07:12:32.959Z,14.89
2019-04-20T07:14:55.429Z,15.06
2019-04-20T07:20:26.122Z,15.24
2019-04-20T07:25:37.557Z,15.15
2019-04-20T07:28:09.669Z,14.86
2019-04-20T07:30:34.715Z,14.10
2019-04-20T07:33:04.153Z,13.81
2019-04-20T07:35:38.167Z,13.40
2019-04-20T07:40:35.629Z,13.76
2019-04-20T07:43:04.421Z,13.90
2019-04-20T07:45:33.151Z,13.75
2019-04-20T07:48:13.684Z,14.23
2019-04-20T07:50:31.838Z,14.44
2019-04-20T07:53:07.626Z,14.34
2019-04-20T07:55:50.816Z,14.50
2019-04-20T07:58:01.420Z,14.44
2019-04-20T08:00:48.460Z,14.38
2019-04-20T08:03:29.593Z,14.43
2019-04-20T08:05:46.773Z,14.81
2019-04-20T08:08:22.668Z,15.58
2019-04-20T08:10:53.853Z,15.59
2019-04-20T08:13:39.950Z,15.93
2019-04-20T08:16:06.765Z,16.30
2019-04-20T08:18:32.316Z,16.64
2019-04-20T08:21:17.928Z,16.80
2019-04-20T08:23:31.729Z,16.47
2019-04-20T08:25:49.726Z,16.24
2019-04-20T08:28:31.429Z,15.81
2019-04-20T08:31:08.863Z,15.16
2019-04-20T08:33:54.890Z,15.46
2019-04-20T08:36:16.718Z,15.47
2019-04-20T08:41:12.941Z,14.44
2019-04-20T08:43:57.187Z,14.05
2019-04-20T08:46:23.402Z,14.24
2019-04-20T08:48:50.977Z,14.70
2019-04-20T08:51:22.566Z,14.92
2019-04-20T08:53:51.731Z,15.28
2019-04-20T08:56:14.603Z,15.67
2019-04-20T08:58:33.841Z,16.17
2019-04-20T09:01:05.425Z,16.63
2019-04-20T09:03:53.108Z,16.37
2019-04-20T09:06:21.601Z,15.94
2019-04-20T09:08:46.527Z,15.42
2019-04-20T09:11:19.742Z,15.33
2019-04-20T09:13:43.120Z,15.13
2019-04-20T09:16:08.627Z,14.93
2019-04-20T09:18:49.375Z,14.42
2019-04-20T09:21:24.358Z,14.12
2019-04-20T09:24:18.352Z,14.54
2019-04-20T09:26:43.249Z,14.85
2019-04-20T09:29:03.131Z,15.16
2019-04-20T09:31:39.315Z,15.84
2019-04-20T09:34:15.422Z,15.79
2019-04-20T09:36:42.337Z,15.38
2019-04-20T09:39:17.715Z,15.17
2019-04-20T09:42:04.289Z,14.86
2019-04-20T09:44:20.007Z,14.74
2019-04-20T09:46:53.231Z,14.48
2019-04-20T09:49:32.825Z,14.37
2019-04-20T09:52:07.842Z,13.98
2019-04-20T09:54:40.407Z,13.75
2019-04-20T09:57:10.469Z,13.21
2019-04-20T09:59:37.170Z,12.94
2019-04-20T10:02:01.933Z,12.82
2019-04-20T10:04:23.810Z,12.64
2019-04-20T10:06:52.709Z,12.52
2019-04-20T10:09:27.942Z,12.49
2019-04-20T10:11:53.116Z,12.52
2019-04-20T10:14:22.627Z,12.70
2019-04-20T10:16:51.835Z,12.85
2019-04-20T10:19:26.555Z,12.99
2019-04-20T10:21:51.580Z,13.77
2019-04-20T10:24:21.573Z,14.82
2019-04-20T10:26:50.540Z,15.52
2019-04-20T10:29:19.618Z,15.90
2019-04-20T10:31:54.598Z,16.23
2019-04-20T10:34:22.077Z,16.91
2019-04-20T10:36:51.470Z,17.22
2019-04-20T10:39:22.495Z,17.44
2019-04-20T10:41:56.269Z,17.22
2019-04-20T10:44:23.064Z,17.36
2019-04-20T10:46:53.264Z,17.16
2019-04-20T10:49:22.799Z,16.91
2019-04-20T10:51:51.799Z,16.52
2019-04-20T10:54:20.536Z,16.43
2019-04-20T10:56:49.799Z,16.35
2019-04-20T10:59:19.376Z,16.59
2019-04-20T11:01:49.652Z,16.53
2019-04-20T11:04:18.793Z,16.12
2019-04-20T11:06:47.562Z,16.11
2019-04-20T11:09:16.547Z,16.04
2019-04-20T11:11:46.094Z,16.69
2019-04-20T11:14:22.805Z,17.43
2019-04-20T11:16:46.687Z,17.53
2019-04-20T11:19:15.765Z,18.36
2019-04-20T11:21:46.206Z,18.92
2019-04-20T11:24:16.273Z,18.60
2019-04-20T11:26:46.812Z,18.00
2019-04-20T11:29:16.139Z,17.03
2019-04-20T11:31:49.248Z,16.57
2019-04-20T11:34:24.889Z,16.43
2019-04-20T11:36:45.929Z,16.07
2019-04-20T11:39:14.857Z,15.96
2019-04-20T11:41:43.736Z,15.79
2019-04-20T11:44:13.751Z,15.84
2019-04-20T11:46:42.916Z,15.67
2019-04-20T11:49:13.159Z,15.52
2019-04-20T11:51:43.443Z,15.54
2019-04-20T11:54:12.543Z,15.66
2019-04-20T11:56:45.778Z,15.62
2019-04-20T11:59:12.910Z,15.40
2019-04-20T12:01:51.945Z,15.68
2019-04-20T12:04:30.445Z,15.68
2019-04-20T12:06:49.234Z,15.44
2019-04-20T12:09:19.053Z,14.58
2019-04-20T12:12:03.630Z,14.34
2019-04-20T12:14:18.803Z,13.91
2019-04-20T12:16:47.890Z,13.98
2019-04-20T12:19:16.584Z,15.19
2019-04-20T12:21:45.687Z,15.61
2019-04-20T12:24:14.613Z,16.04
2019-04-20T12:26:44.565Z,16.25
2019-04-20T12:29:14.057Z,16.09
2019-04-20T12:31:51.232Z,15.88
2019-04-20T12:34:16.022Z,16.02
2019-04-20T12:36:44.929Z,15.60
2019-04-20T12:39:15.087Z,15.90
2019-04-20T12:41:50.550Z,16.08
2019-04-20T12:44:14.384Z,16.41
2019-04-20T12:46:44.038Z,17.23
2019-04-20T12:49:13.681Z,17.74
2019-04-20T12:51:50.573Z,18.27
2019-04-20T12:54:14.522Z,18.31
2019-04-20T12:56:44.553Z,18.14
2019-04-20T12:59:13.796Z,18.84
2019-04-20T13:01:43.762Z,18.81
2019-04-20T13:04:12.650Z,18.40
2019-04-20T13:06:42.802Z,17.54
2019-04-20T13:09:12.712Z,16.71
2019-04-20T13:11:54.639Z,16.20
2019-04-20T13:14:30.622Z,15.90
2019-04-20T13:16:59.582Z,15.71
2019-04-20T13:19:29.067Z,15.87
2019-04-20T13:21:58.986Z,15.87
2019-04-20T13:24:29.158Z,16.19
2019-04-20T13:26:58.691Z,17.15
2019-04-20T13:29:29.006Z,17.65
2019-04-20T13:31:58.516Z,17.37
2019-04-20T13:34:28.468Z,16.97
2019-04-20T13:36:58.186Z,16.46
2019-04-20T13:39:27.041Z,15.89
2019-04-20T13:42:05.689Z,15.70
2019-04-20T13:44:27.229Z,15.22
2019-04-20T13:46:56.779Z,15.28
2019-04-20T13:49:27.051Z,15.18
2019-04-20T13:51:57.087Z,15.13
2019-04-20T13:54:28.028Z,15.08
2019-04-20T13:56:57.960Z,15.17
2019-04-20T13:59:44.968Z,15.06
2019-04-20T14:02:17.142Z,14.66
2019-04-20T14:04:48.698Z,14.28
2019-04-20T14:07:19.059Z,14.06
2019-04-20T14:09:48.702Z,14.07
2019-04-20T14:12:25.241Z,14.08
2019-04-20T14:14:48.947Z,13.97
2019-04-20T14:17:19.094Z,14.10
2019-04-20T14:19:49.401Z,14.04
2019-04-20T14:22:18.754Z,14.05
2019-04-20T14:24:48.963Z,13.90
2019-04-20T14:27:19.041Z,13.92
2019-04-20T14:29:48.708Z,14.16
2019-04-20T14:32:18.812Z,14.11
2019-04-20T14:34:48.943Z,14.20
2019-04-20T14:37:18.715Z,14.44
2019-04-20T14:39:48.044Z,14.66
2019-04-20T14:42:26.910Z,15.15
2019-04-20T14:44:47.935Z,15.25
2019-04-20T14:47:17.915Z,16.08
2019-04-20T14:49:48.483Z,16.95
2019-04-20T14:52:17.713Z,17.52
2019-04-20T14:54:47.690Z,17.97
2019-04-20T14:57:17.284Z,18.22
2019-04-20T14:59:53.960Z,18.32
2019-04-20T15:02:23.206Z,18.66
2019-04-20T15:04:52.774Z,18.76
2019-04-20T15:07:22.581Z,18.59
2019-04-20T15:09:52.866Z,17.94
2019-04-20T15:12:21.767Z,17.55
2019-04-20T15:14:50.547Z,17.17
2019-04-20T15:17:23.945Z,16.59
2019-04-20T15:19:54.556Z,16.03
2019-04-20T15:22:29.579Z,15.64
2019-04-20T15:24:59.834Z,15.34
2019-04-20T15:27:30.358Z,14.97
2019-04-20T15:30:00.291Z,14.93
2019-04-20T15:32:29.307Z,14.93
2019-04-20T15:34:58.240Z,14.85
2019-04-20T15:37:26.971Z,14.59
2019-04-20T15:39:57.023Z,14.41
2019-04-20T15:42:27.641Z,14.21
2019-04-20T15:44:57.689Z,13.92
2019-04-20T15:47:27.909Z,13.90
2019-04-20T15:49:58.052Z,14.56
2019-04-20T15:52:31.854Z,15.50
2019-04-20T15:55:03.062Z,16.06
2019-04-20T15:57:29.693Z,16.64
2019-04-20T15:59:58.531Z,16.81
2019-04-20T16:02:33.617Z,16.21
2019-04-20T16:05:04.149Z,15.73
2019-04-20T16:07:40.718Z,15.22
2019-04-20T16:10:05.498Z,14.74
2019-04-20T16:12:35.156Z,14.47
2019-04-20T16:15:05.245Z,14.05
2019-04-20T16:17:39.015Z,13.74
2019-04-20T16:20:09.057Z,13.50
2019-04-20T16:22:36.611Z,13.17
2019-04-20T16:25:23.810Z,12.93
2019-04-20T16:27:53.852Z,12.70
2019-04-20T16:30:23.380Z,12.35
2019-04-20T16:32:52.569Z,12.19
2019-04-20T16:35:22.453Z,11.92
2019-04-20T16:37:52.647Z,11.77
2019-04-20T16:40:21.561Z,11.54
2019-04-20T16:42:50.372Z,11.36
2019-04-20T16:45:19.218Z,11.20
2019-04-20T16:47:48.275Z,10.96
2019-04-20T16:50:17.280Z,10.73
2019-04-20T16:52:46.568Z,10.60
2019-04-20T16:55:16.609Z,10.50
2019-04-20T16:57:47.938Z,10.50
2019-04-20T17:00:17.903Z,10.41
2019-04-20T17:02:47.975Z,10.25
2019-04-20T17:05:16.994Z,10.08
2019-04-20T17:07:57.387Z,9.91
2019-04-20T17:10:26.553Z,9.78
2019-04-20T17:12:55.701Z,9.59
2019-04-20T17:15:25.535Z,9.41
2019-04-20T17:17:56.725Z,9.23
2019-04-20T17:20:25.715Z,9.06
2019-04-20T17:22:56.237Z,8.94
2019-04-20T17:25:25.901Z,8.86
2019-04-20T17:27:59.561Z,8.75
2019-04-20T17:30:39.985Z,8.69
2019-04-20T17:33:22.789Z,8.66
2019-04-20T17:35:59.371Z,8.51
2019-04-20T17:38:20.672Z,8.48
2019-04-20T17:41:03.106Z,8.37
2019-04-20T17:43:29.392Z,8.30
2019-04-20T17:45:59.625Z,8.24
2019-04-20T17:48:35.021Z,8.24
2019-04-20T17:51:11.069Z,8.20
2019-04-20T17:53:44.621Z,8.25
2019-04-20T17:56:07.484Z,8.23
2019-04-20T17:58:39.516Z,8.66
2019-04-20T18:01:35.836Z,8.62
2019-04-20T18:04:31.094Z,8.33
2019-04-20T18:06:43.694Z,8.03
2019-04-20T18:09:10.893Z,7.84
2019-04-20T18:11:38.593Z,7.65
2019-04-20T18:14:11.063Z,7.51
2019-04-20T18:16:52.374Z,7.47
2019-04-20T18:19:13.281Z,7.49
2019-04-20T18:21:43.421Z,7.29
2019-04-20T18:24:24.165Z,7.16
2019-04-20T18:27:03.039Z,7.00
2019-04-20T18:29:32.840Z,6.90
2019-04-20T18:32:01.910Z,6.96
2019-04-20T18:34:46.795Z,6.88
2019-04-20T18:37:17.245Z,6.77
2019-04-20T18:39:54.778Z,6.64
2019-04-20T18:42:24.985Z,6.53
2019-04-20T18:45:08.948Z,6.45
2019-04-20T18:47:42.162Z,6.36
2019-04-20T18:49:57.123Z,6.50
2019-04-20T18:52:19.778Z,6.51
2019-04-20T18:54:53.346Z,6.48
2019-04-20T18:57:24.871Z,6.40
2019-04-20T18:59:54.484Z,6.30
2019-04-20T19:02:26.816Z,6.23
2019-04-20T19:04:50.745Z,6.15
2019-04-20T19:07:19.825Z,6.12
2019-04-20T19:09:53.268Z,6.12
2019-04-20T19:12:21.685Z,6.07
2019-04-20T19:15:12.103Z,6.06
2019-04-20T19:17:51.029Z,6.05
2019-04-20T19:20:14.089Z,5.97
2019-04-20T19:22:44.026Z,5.93
2019-04-20T19:25:19.827Z,5.90
2019-04-20T19:27:49.374Z,5.84
2019-04-20T19:30:24.929Z,5.81
2019-04-20T19:33:03.909Z,5.72
2019-04-20T19:35:30.852Z,5.66
2019-04-20T19:37:57.379Z,5.59
2019-04-20T19:40:31.282Z,5.67
2019-04-20T19:43:01.272Z,5.71
2019-04-20T19:45:43.875Z,5.82
2019-04-20T19:48:04.376Z,5.79
2019-04-20T19:50:45.659Z,5.71
2019-04-20T19:53:18.366Z,5.67
2019-04-20T19:55:40.158Z,5.67
2019-04-20T19:58:10.662Z,5.79
2019-04-20T20:00:40.946Z,6.00
2019-04-20T20:03:11.882Z,6.05
2019-04-20T20:05:45.198Z,6.02
2019-04-20T20:08:15.041Z,6.01
2019-04-20T20:10:44.151Z,5.91
2019-04-20T20:13:13.197Z,6.00
2019-04-20T20:15:43.670Z,5.96
2019-04-20T20:18:30.032Z,5.96
2019-04-20T20:20:59.605Z,6.00
2019-04-20T20:23:14.287Z,5.87
2019-04-20T20:25:47.638Z,5.74
2019-04-20T20:28:29.944Z,5.62
2019-04-20T20:30:57.013Z,5.57
2019-04-20T20:33:36.353Z,5.78
2019-04-20T20:35:53.957Z,5.82
2019-04-20T20:38:25.574Z,5.75
2019-04-20T20:40:58.928Z,5.61
2019-04-20T20:43:31.777Z,5.46
2019-04-20T20:46:01.262Z,5.31
2019-04-20T20:48:35.898Z,5.24
2019-04-20T20:51:05.202Z,5.15
2019-04-20T20:53:38.004Z,5.14
2019-04-20T20:56:03.959Z,5.09
2019-04-20T20:58:36.166Z,5.06
2019-04-20T21:00:57.575Z,5.06
2019-04-20T21:03:30.604Z,5.06
2019-04-20T21:05:53.643Z,5.08
2019-04-20T21:08:23.818Z,5.08
2019-04-20T21:10:54.734Z,5.18
2019-04-20T21:13:25.935Z,5.13
2019-04-20T21:16:02.603Z,5.09
2019-04-20T21:18:44.914Z,4.79
2019-04-20T21:21:11.144Z,4.64
2019-04-20T21:23:36.817Z,4.42
2019-04-20T21:26:12.854Z,4.40
2019-04-20T21:28:41.723Z,4.36
2019-04-20T21:31:14.618Z,4.18
2019-04-20T21:33:42.831Z,3.99
2019-04-20T21:36:13.484Z,3.88
2019-04-20T21:38:43.330Z,3.91
2019-04-20T21:41:16.519Z,3.91
2019-04-20T21:43:44.536Z,3.84
2019-04-20T21:46:14.206Z,3.77
2019-04-20T21:48:56.018Z,3.88
2019-04-20T21:51:29.312Z,4.10
2019-04-20T21:53:44.396Z,3.94
2019-04-20T21:56:13.469Z,3.74
2019-04-20T21:58:49.442Z,4.15
2019-04-20T22:01:24.251Z,4.02
2019-04-20T22:03:45.164Z,3.63
2019-04-20T22:06:14.160Z,3.36
2019-04-20T22:08:45.934Z,2.98
2019-04-20T22:11:13.631Z,2.79
2019-04-20T22:13:44.601Z,2.65
2019-04-20T22:16:14.757Z,2.65
2019-04-20T22:18:54.013Z,2.60
2019-04-20T22:21:22.601Z,2.66
2019-04-20T22:24:00.602Z,2.72
2019-04-20T22:26:25.384Z,2.76
2019-04-20T22:28:47.824Z,2.86
2019-04-20T22:31:18.199Z,2.88
2019-04-20T22:33:48.701Z,3.03
2019-04-20T22:36:18.204Z,3.03
2019-04-20T22:39:07.499Z,3.23
2019-04-20T22:41:40.561Z,3.20
2019-04-20T22:44:15.141Z,3.14
2019-04-20T22:46:42.192Z,3.06
2019-04-20T22:49:30.302Z,3.10
2019-04-20T22:51:51.997Z,3.05
2019-04-20T22:54:27.596Z,3.07
2019-04-20T22:56:55.047Z,2.96
2019-04-20T22:59:18.478Z,2.90
2019-04-20T23:01:48.560Z,2.94
2019-04-20T23:04:14.885Z,2.94
2019-04-20T23:06:48.108Z,3.04
2019-04-20T23:09:15.121Z,3.15
2019-04-20T23:11:45.211Z,3.17
2019-04-20T23:14:14.340Z,3.15
2019-04-20T23:16:48.463Z,3.14
2019-04-20T23:19:28.140Z,3.22
2019-04-20T23:21:48.550Z,3.22
2019-04-20T23:24:17.114Z,3.22
2019-04-20T23:26:47.619Z,3.22
2019-04-20T23:29:17.500Z,3.22
2019-04-20T23:31:55.307Z,3.14
2019-04-20T23:34:22.435Z,3.15
2019-04-20T23:36:50.513Z,3.13
2019-04-20T23:39:19.046Z,3.18
2019-04-20T23:41:53.733Z,3.32
2019-04-20T23:44:21.023Z,3.48
2019-04-20T23:47:01.159Z,3.69
2019-04-20T23:49:42.857Z,3.75
2019-04-20T23:52:26.399Z,3.81
2019-04-20T23:54:34.071Z,3.85
2019-04-20T23:57:08.102Z,3.72
2019-04-20T23:59:41.099Z,3.76
